sensor_id;sensor_type;location;lat;lon;timestamp;temperature;humidity
76537;DHT22;65381;51.254;15.592;2022-11-20T09:22:50;20.30;37.50
76537;DHT22;65381;51.254;15.592;2022-11-20T09:25:18;20.30;37.20
76537;DHT22;65381;51.254;15.592;2022-11-20T09:27:45;20.40;37.00
76537;DHT22;65381;51.254;15.592;2022-11-20T09:30:14;20.50;36.80
76537;DHT22;65381;51.254;15.592;2022-11-20T09:32:42;20.50;36.70
76537;DHT22;65381;51.254;15.592;2022-11-20T09:35:10;20.50;36.70
76537;DHT22;65381;51.254;15.592;2022-11-20T09:37:38;20.60;36.50
76537;DHT22;65381;51.254;15.592;2022-11-20T09:40:24;20.70;36.30
76537;DHT22;65381;51.254;15.592;2022-11-20T09:43:03;20.80;36.20
76537;DHT22;65381;51.254;15.592;2022-11-20T09:51:13;21.10;35.70
76537;DHT22;65381;51.254;15.592;2022-11-20T09:56:26;21.40;35.40
76537;DHT22;65381;51.254;15.592;2022-11-20T09:58:57;22.30;34.50
76537;DHT22;65381;51.254;15.592;2022-11-20T10:01:30;23.00;33.60
76537;DHT22;65381;51.254;15.592;2022-11-20T10:04:15;23.50;33.10
76537;DHT22;65381;51.254;15.592;2022-11-20T10:06:46;24.00;32.60
76537;DHT22;65381;51.254;15.592;2022-11-20T10:09:40;24.30;32.40
76537;DHT22;65381;51.254;15.592;2022-11-20T10:20:26;24.20;33.00
76537;DHT22;65381;51.254;15.592;2022-11-20T10:31:03;25.20;32.10
76537;DHT22;65381;51.254;15.592;2022-11-20T10:33:35;25.30;32.20
76537;DHT22;65381;51.254;15.592;2022-11-20T10:36:27;25.00;32.90
76537;DHT22;65381;51.254;15.592;2022-11-20T10:39:14;25.00;33.10
76537;DHT22;65381;51.254;15.592;2022-11-20T10:41:46;25.00;33.40
76537;DHT22;65381;51.254;15.592;2022-11-20T10:44:24;25.40;33.00
76537;DHT22;65381;51.254;15.592;2022-11-20T10:47:14;26.00;32.20
76537;DHT22;65381;51.254;15.592;2022-11-20T10:49:46;26.40;31.70
76537;DHT22;65381;51.254;15.592;2022-11-20T10:52:34;26.60;31.30
76537;DHT22;65381;51.254;15.592;2022-11-20T11:00:19;26.80;31.00
76537;DHT22;65381;51.254;15.592;2022-11-20T11:02:54;26.80;31.20
76537;DHT22;65381;51.254;15.592;2022-11-20T11:07:58;24.60;33.40
76537;DHT22;65381;51.254;15.592;2022-11-20T11:10:39;23.90;34.00
76537;DHT22;65381;51.254;15.592;2022-11-20T11:13:20;23.40;35.20
76537;DHT22;65381;51.254;15.592;2022-11-20T11:15:48;23.00;35.90
76537;DHT22;65381;51.254;15.592;2022-11-20T11:18:30;22.80;36.30
76537;DHT22;65381;51.254;15.592;2022-11-20T11:21:01;22.70;36.20
76537;DHT22;65381;51.254;15.592;2022-11-20T11:23:44;22.50;36.10
76537;DHT22;65381;51.254;15.592;2022-11-20T11:26:20;22.40;36.10
76537;DHT22;65381;51.254;15.592;2022-11-20T11:29:02;22.30;35.90
76537;DHT22;65381;51.254;15.592;2022-11-20T11:31:32;22.10;36.50
76537;DHT22;65381;51.254;15.592;2022-11-20T11:34:13;22.10;36.20
76537;DHT22;65381;51.254;15.592;2022-11-20T11:36:41;22.00;36.10
76537;DHT22;65381;51.254;15.592;2022-11-20T11:39:15;21.90;36.00
76537;DHT22;65381;51.254;15.592;2022-11-20T11:41:45;21.80;36.20
76537;DHT22;65381;51.254;15.592;2022-11-20T11:47:00;21.70;37.00
76537;DHT22;65381;51.254;15.592;2022-11-20T11:49:29;21.70;36.80
76537;DHT22;65381;51.254;15.592;2022-11-20T11:54:57;21.70;36.70
76537;DHT22;65381;51.254;15.592;2022-11-20T11:57:48;21.60;36.70
76537;DHT22;65381;51.254;15.592;2022-11-20T12:00:21;21.50;36.60
76537;DHT22;65381;51.254;15.592;2022-11-20T12:03:18;21.50;36.60
76537;DHT22;65381;51.254;15.592;2022-11-20T12:06:11;21.50;37.50
76537;DHT22;65381;51.254;15.592;2022-11-20T12:08:53;21.50;37.00
76537;DHT22;65381;51.254;15.592;2022-11-20T12:14:33;21.30;36.70
76537;DHT22;65381;51.254;15.592;2022-11-20T12:17:04;21.30;36.70
76537;DHT22;65381;51.254;15.592;2022-11-20T12:19:34;21.30;37.60
76537;DHT22;65381;51.254;15.592;2022-11-20T12:30:23;21.20;36.90
76537;DHT22;65381;51.254;15.592;2022-11-20T12:38:59;21.10;37.30
76537;DHT22;65381;51.254;15.592;2022-11-20T12:47:22;21.00;37.50
76537;DHT22;65381;51.254;15.592;2022-11-20T13:05:24;1.00;56.10
76537;DHT22;65381;51.254;15.592;2022-11-20T13:07:54;0.80;56.80
76537;DHT22;65381;51.254;15.592;2022-11-20T13:10:39;0.80;57.20
76537;DHT22;65381;51.254;15.592;2022-11-20T13:15:59;0.70;58.60
76537;DHT22;65381;51.254;15.592;2022-11-20T13:18:33;0.60;59.00
76537;DHT22;65381;51.254;15.592;2022-11-20T13:21:13;0.80;58.90
76537;DHT22;65381;51.254;15.592;2022-11-20T13:23:41;0.70;57.70
76537;DHT22;65381;51.254;15.592;2022-11-20T13:26:20;0.60;58.00
76537;DHT22;65381;51.254;15.592;2022-11-20T13:29:07;0.60;58.40
76537;DHT22;65381;51.254;15.592;2022-11-20T13:31:38;0.60;57.80
76537;DHT22;65381;51.254;15.592;2022-11-20T13:34:13;0.60;57.60
76537;DHT22;65381;51.254;15.592;2022-11-20T13:36:53;0.60;57.80
76537;DHT22;65381;51.254;15.592;2022-11-20T13:39:29;0.60;58.50
76537;DHT22;65381;51.254;15.592;2022-11-20T13:42:01;0.50;58.00
76537;DHT22;65381;51.254;15.592;2022-11-20T13:44:44;0.50;58.40
76537;DHT22;65381;51.254;15.592;2022-11-20T13:47:24;0.40;58.30
76537;DHT22;65381;51.254;15.592;2022-11-20T13:49:54;0.40;58.70
76537;DHT22;65381;51.254;15.592;2022-11-20T13:55:22;0.20;58.70
76537;DHT22;65381;51.254;15.592;2022-11-20T14:00:55;0.00;60.00
76537;DHT22;65381;51.254;15.592;2022-11-20T14:03:25;0.00;59.60
76537;DHT22;65381;51.254;15.592;2022-11-20T14:06:28;0.00;59.70
76537;DHT22;65381;51.254;15.592;2022-11-20T14:08:58;-0.10;60.30
76537;DHT22;65381;51.254;15.592;2022-11-20T14:11:30;-0.10;61.20
76537;DHT22;65381;51.254;15.592;2022-11-20T14:13:59;-0.20;61.30
76537;DHT22;65381;51.254;15.592;2022-11-20T14:16:31;-0.20;61.80
76537;DHT22;65381;51.254;15.592;2022-11-20T14:22:07;-0.40;62.20
76537;DHT22;65381;51.254;15.592;2022-11-20T14:24:35;-0.50;62.70
76537;DHT22;65381;51.254;15.592;2022-11-20T14:27:03;-0.50;63.00
76537;DHT22;65381;51.254;15.592;2022-11-20T14:29:35;-0.50;63.40
76537;DHT22;65381;51.254;15.592;2022-11-20T14:32:04;-0.50;63.90
76537;DHT22;65381;51.254;15.592;2022-11-20T14:34:37;-0.60;63.80
76537;DHT22;65381;51.254;15.592;2022-11-20T14:37:11;-0.70;64.10
76537;DHT22;65381;51.254;15.592;2022-11-20T14:39:52;-0.70;64.40
76537;DHT22;65381;51.254;15.592;2022-11-20T14:42:25;-0.70;64.80
76537;DHT22;65381;51.254;15.592;2022-11-20T14:44:57;-0.70;65.00
76537;DHT22;65381;51.254;15.592;2022-11-20T14:47:30;-0.90;65.20
76537;DHT22;65381;51.254;15.592;2022-11-20T14:49:58;-0.90;65.60
76537;DHT22;65381;51.254;15.592;2022-11-20T14:52:33;-1.00;65.40
76537;DHT22;65381;51.254;15.592;2022-11-20T14:55:01;-1.00;66.10
76537;DHT22;65381;51.254;15.592;2022-11-20T14:57:34;-1.10;66.20
76537;DHT22;65381;51.254;15.592;2022-11-20T15:02:45;-1.10;67.20
76537;DHT22;65381;51.254;15.592;2022-11-20T15:05:14;-1.10;67.20
76537;DHT22;65381;51.254;15.592;2022-11-20T15:07:45;-1.10;67.30
76537;DHT22;65381;51.254;15.592;2022-11-20T15:10:25;-1.20;67.80
76537;DHT22;65381;51.254;15.592;2022-11-20T15:13:05;-1.30;67.90
76537;DHT22;65381;51.254;15.592;2022-11-20T15:15:50;-1.30;68.20
76537;DHT22;65381;51.254;15.592;2022-11-20T15:18:31;-1.30;68.40
76537;DHT22;65381;51.254;15.592;2022-11-20T15:21:08;-1.30;68.90
76537;DHT22;65381;51.254;15.592;2022-11-20T15:23:37;-1.40;69.00
76537;DHT22;65381;51.254;15.592;2022-11-20T15:26:06;-1.30;69.00
76537;DHT22;65381;51.254;15.592;2022-11-20T15:28:37;-1.40;69.30
76537;DHT22;65381;51.254;15.592;2022-11-20T15:31:06;-1.40;69.40
76537;DHT22;65381;51.254;15.592;2022-11-20T15:33:34;-1.50;69.40
76537;DHT22;65381;51.254;15.592;2022-11-20T15:36:02;-1.50;69.70
76537;DHT22;65381;51.254;15.592;2022-11-20T15:38:30;-1.50;70.00
76537;DHT22;65381;51.254;15.592;2022-11-20T15:40:58;-1.50;69.70
76537;DHT22;65381;51.254;15.592;2022-11-20T15:43:26;-1.50;70.00
76537;DHT22;65381;51.254;15.592;2022-11-20T15:46:02;-1.50;70.20
76537;DHT22;65381;51.254;15.592;2022-11-20T15:48:41;-1.60;70.20
76537;DHT22;65381;51.254;15.592;2022-11-20T15:53:56;-1.60;70.80
76537;DHT22;65381;51.254;15.592;2022-11-20T15:56:25;-1.60;70.70
76537;DHT22;65381;51.254;15.592;2022-11-20T15:58:54;-1.50;70.80
76537;DHT22;65381;51.254;15.592;2022-11-20T16:01:22;-1.60;70.50
76537;DHT22;65381;51.254;15.592;2022-11-20T16:03:50;-1.70;70.60
76537;DHT22;65381;51.254;15.592;2022-11-20T16:06:18;-1.60;71.40
76537;DHT22;65381;51.254;15.592;2022-11-20T16:08:48;-1.70;71.30
76537;DHT22;65381;51.254;15.592;2022-11-20T16:11:17;-1.70;71.20
76537;DHT22;65381;51.254;15.592;2022-11-20T16:13:45;-1.70;71.10
76537;DHT22;65381;51.254;15.592;2022-11-20T16:16:29;-1.70;71.30
76537;DHT22;65381;51.254;15.592;2022-11-20T16:18:58;-1.70;71.70
76537;DHT22;65381;51.254;15.592;2022-11-20T16:21:27;-1.60;71.30
76537;DHT22;65381;51.254;15.592;2022-11-20T16:24:00;-1.60;71.10
76537;DHT22;65381;51.254;15.592;2022-11-20T16:26:29;-1.60;71.40
76537;DHT22;65381;51.254;15.592;2022-11-20T16:29:02;-1.60;71.70
76537;DHT22;65381;51.254;15.592;2022-11-20T16:31:31;-1.60;72.00
76537;DHT22;65381;51.254;15.592;2022-11-20T16:34:01;-1.60;72.00
76537;DHT22;65381;51.254;15.592;2022-11-20T16:36:39;-1.60;71.60
76537;DHT22;65381;51.254;15.592;2022-11-20T16:39:08;-1.60;72.00
76537;DHT22;65381;51.254;15.592;2022-11-20T16:41:35;-1.60;71.90
76537;DHT22;65381;51.254;15.592;2022-11-20T16:44:09;-1.70;72.10
76537;DHT22;65381;51.254;15.592;2022-11-20T16:46:39;-1.70;72.40
76537;DHT22;65381;51.254;15.592;2022-11-20T16:49:12;-1.70;72.40
76537;DHT22;65381;51.254;15.592;2022-11-20T16:51:40;-1.70;72.50
76537;DHT22;65381;51.254;15.592;2022-11-20T16:54:09;-1.60;72.50
76537;DHT22;65381;51.254;15.592;2022-11-20T16:56:37;-1.60;72.50
76537;DHT22;65381;51.254;15.592;2022-11-20T16:59:05;-1.70;72.90
76537;DHT22;65381;51.254;15.592;2022-11-20T17:01:33;-1.70;73.20
76537;DHT22;65381;51.254;15.592;2022-11-20T17:04:05;-1.70;73.10
76537;DHT22;65381;51.254;15.592;2022-11-20T17:06:35;-1.80;73.10
76537;DHT22;65381;51.254;15.592;2022-11-20T17:09:04;-1.80;73.60
76537;DHT22;65381;51.254;15.592;2022-11-20T17:11:31;-1.80;73.50
76537;DHT22;65381;51.254;15.592;2022-11-20T17:14:00;-1.90;73.80
76537;DHT22;65381;51.254;15.592;2022-11-20T17:16:30;-1.90;74.10
76537;DHT22;65381;51.254;15.592;2022-11-20T17:18:59;-1.90;73.70
76537;DHT22;65381;51.254;15.592;2022-11-20T17:21:33;-2.00;74.30
76537;DHT22;65381;51.254;15.592;2022-11-20T17:24:09;-2.10;74.50
76537;DHT22;65381;51.254;15.592;2022-11-20T17:26:39;-2.00;74.60
76537;DHT22;65381;51.254;15.592;2022-11-20T17:29:17;-2.00;74.70
76537;DHT22;65381;51.254;15.592;2022-11-20T17:31:47;-2.00;74.60
76537;DHT22;65381;51.254;15.592;2022-11-20T17:34:16;-2.00;75.10
76537;DHT22;65381;51.254;15.592;2022-11-20T17:36:44;-2.10;74.80
76537;DHT22;65381;51.254;15.592;2022-11-20T17:39:14;-2.00;75.00
76537;DHT22;65381;51.254;15.592;2022-11-20T17:41:46;-2.10;75.20
76537;DHT22;65381;51.254;15.592;2022-11-20T17:44:34;-2.00;75.10
76537;DHT22;65381;51.254;15.592;2022-11-20T17:47:01;-1.90;75.70
76537;DHT22;65381;51.254;15.592;2022-11-20T17:49:29;-1.80;76.10
76537;DHT22;65381;51.254;15.592;2022-11-20T17:51:57;-1.70;75.90
76537;DHT22;65381;51.254;15.592;2022-11-20T17:54:25;-1.70;75.80
76537;DHT22;65381;51.254;15.592;2022-11-20T17:56:52;-1.70;75.90
76537;DHT22;65381;51.254;15.592;2022-11-20T17:59:35;-1.60;76.10
76537;DHT22;65381;51.254;15.592;2022-11-20T18:02:04;-1.50;76.10
76537;DHT22;65381;51.254;15.592;2022-11-20T18:04:32;-1.50;75.70
76537;DHT22;65381;51.254;15.592;2022-11-20T18:06:59;-1.50;75.40
76537;DHT22;65381;51.254;15.592;2022-11-20T18:09:28;-1.40;75.50
76537;DHT22;65381;51.254;15.592;2022-11-20T18:11:55;-1.50;75.00
76537;DHT22;65381;51.254;15.592;2022-11-20T18:14:23;-1.50;75.20
76537;DHT22;65381;51.254;15.592;2022-11-20T18:17:09;-1.50;75.10
76537;DHT22;65381;51.254;15.592;2022-11-20T18:19:40;-1.50;75.30
76537;DHT22;65381;51.254;15.592;2022-11-20T18:22:27;-1.50;75.50
76537;DHT22;65381;51.254;15.592;2022-11-20T18:24:54;-1.60;75.70
76537;DHT22;65381;51.254;15.592;2022-11-20T18:27:22;-1.60;75.60
76537;DHT22;65381;51.254;15.592;2022-11-20T18:29:50;-1.60;75.30
76537;DHT22;65381;51.254;15.592;2022-11-20T18:32:22;-1.60;75.50
76537;DHT22;65381;51.254;15.592;2022-11-20T18:34:50;-1.60;75.70
76537;DHT22;65381;51.254;15.592;2022-11-20T18:37:18;-1.70;75.40
76537;DHT22;65381;51.254;15.592;2022-11-20T18:39:46;-1.60;75.20
76537;DHT22;65381;51.254;15.592;2022-11-20T18:42:16;-1.70;75.50
76537;DHT22;65381;51.254;15.592;2022-11-20T18:44:59;-1.70;75.50
76537;DHT22;65381;51.254;15.592;2022-11-20T18:47:30;-1.70;75.60
76537;DHT22;65381;51.254;15.592;2022-11-20T18:49:59;-1.70;75.20
76537;DHT22;65381;51.254;15.592;2022-11-20T18:54:57;-1.70;74.50
76537;DHT22;65381;51.254;15.592;2022-11-20T18:57:26;-1.70;75.00
76537;DHT22;65381;51.254;15.592;2022-11-20T18:59:55;-1.80;75.30
76537;DHT22;65381;51.254;15.592;2022-11-20T19:02:34;-1.80;75.30
76537;DHT22;65381;51.254;15.592;2022-11-20T19:05:10;-1.70;75.00
76537;DHT22;65381;51.254;15.592;2022-11-20T19:07:37;-1.80;75.10
76537;DHT22;65381;51.254;15.592;2022-11-20T19:10:06;-1.70;75.40
76537;DHT22;65381;51.254;15.592;2022-11-20T19:12:33;-1.70;75.70
76537;DHT22;65381;51.254;15.592;2022-11-20T19:15:01;-1.70;75.50
76537;DHT22;65381;51.254;15.592;2022-11-20T19:17:29;-1.70;75.70
76537;DHT22;65381;51.254;15.592;2022-11-20T19:19:59;-1.60;75.80
76537;DHT22;65381;51.254;15.592;2022-11-20T19:22:27;-1.60;75.50
76537;DHT22;65381;51.254;15.592;2022-11-20T19:24:55;-1.60;75.50
76537;DHT22;65381;51.254;15.592;2022-11-20T19:27:23;-1.60;75.70
76537;DHT22;65381;51.254;15.592;2022-11-20T19:29:51;-1.60;75.90
76537;DHT22;65381;51.254;15.592;2022-11-20T19:32:19;-1.70;76.00
76537;DHT22;65381;51.254;15.592;2022-11-20T19:34:47;-1.70;76.20
76537;DHT22;65381;51.254;15.592;2022-11-20T19:37:14;-1.70;76.30
76537;DHT22;65381;51.254;15.592;2022-11-20T19:39:42;-1.70;76.40
76537;DHT22;65381;51.254;15.592;2022-11-20T19:42:10;-1.80;76.20
76537;DHT22;65381;51.254;15.592;2022-11-20T19:44:38;-1.80;76.10
76537;DHT22;65381;51.254;15.592;2022-11-20T19:47:06;-1.90;76.30
76537;DHT22;65381;51.254;15.592;2022-11-20T19:49:40;-1.90;76.10
76537;DHT22;65381;51.254;15.592;2022-11-20T19:52:08;-1.90;76.60
76537;DHT22;65381;51.254;15.592;2022-11-20T19:54:36;-1.90;76.80
76537;DHT22;65381;51.254;15.592;2022-11-20T19:57:04;-2.00;76.90
76537;DHT22;65381;51.254;15.592;2022-11-20T19:59:32;-2.00;76.30
76537;DHT22;65381;51.254;15.592;2022-11-20T20:02:00;-2.00;76.90
76537;DHT22;65381;51.254;15.592;2022-11-20T20:04:30;-2.00;77.00
76537;DHT22;65381;51.254;15.592;2022-11-20T20:06:57;-2.10;77.40
76537;DHT22;65381;51.254;15.592;2022-11-20T20:09:26;-2.10;77.20
76537;DHT22;65381;51.254;15.592;2022-11-20T20:11:53;-2.10;76.80
76537;DHT22;65381;51.254;15.592;2022-11-20T20:14:21;-2.20;77.20
76537;DHT22;65381;51.254;15.592;2022-11-20T20:16:49;-2.20;77.20
76537;DHT22;65381;51.254;15.592;2022-11-20T20:19:17;-2.30;77.50
76537;DHT22;65381;51.254;15.592;2022-11-20T20:21:45;-2.30;77.50
76537;DHT22;65381;51.254;15.592;2022-11-20T20:24:14;-2.30;77.30
76537;DHT22;65381;51.254;15.592;2022-11-20T20:26:42;-2.30;77.20
76537;DHT22;65381;51.254;15.592;2022-11-20T20:29:10;-2.30;77.40
76537;DHT22;65381;51.254;15.592;2022-11-20T20:31:38;-2.30;77.90
76537;DHT22;65381;51.254;15.592;2022-11-20T20:34:06;-2.30;77.60
76537;DHT22;65381;51.254;15.592;2022-11-20T20:36:34;-2.40;77.20
76537;DHT22;65381;51.254;15.592;2022-11-20T20:39:02;-2.30;77.80
76537;DHT22;65381;51.254;15.592;2022-11-20T20:41:30;-2.30;77.80
76537;DHT22;65381;51.254;15.592;2022-11-20T20:43:58;-2.30;77.90
76537;DHT22;65381;51.254;15.592;2022-11-20T20:46:42;-2.20;77.80
76537;DHT22;65381;51.254;15.592;2022-11-20T20:49:10;-2.30;77.50
76537;DHT22;65381;51.254;15.592;2022-11-20T20:51:38;-2.30;77.20
76537;DHT22;65381;51.254;15.592;2022-11-20T20:54:06;-2.30;77.50
76537;DHT22;65381;51.254;15.592;2022-11-20T20:56:33;-2.30;77.70
76537;DHT22;65381;51.254;15.592;2022-11-20T20:59:02;-2.40;76.70
76537;DHT22;65381;51.254;15.592;2022-11-20T21:01:30;-2.40;77.50
76537;DHT22;65381;51.254;15.592;2022-11-20T21:03:58;-2.50;76.60
76537;DHT22;65381;51.254;15.592;2022-11-20T21:06:26;-2.50;77.20
76537;DHT22;65381;51.254;15.592;2022-11-20T21:08:54;-2.50;77.20
76537;DHT22;65381;51.254;15.592;2022-11-20T21:11:23;-2.50;77.10
76537;DHT22;65381;51.254;15.592;2022-11-20T21:13:51;-2.50;77.30
76537;DHT22;65381;51.254;15.592;2022-11-20T21:16:19;-2.50;77.30
76537;DHT22;65381;51.254;15.592;2022-11-20T21:18:49;-2.50;77.20
76537;DHT22;65381;51.254;15.592;2022-11-20T21:21:17;-2.50;76.90
76537;DHT22;65381;51.254;15.592;2022-11-20T21:23:59;-2.40;77.50
76537;DHT22;65381;51.254;15.592;2022-11-20T21:26:27;-2.50;77.00
76537;DHT22;65381;51.254;15.592;2022-11-20T21:28:57;-2.50;77.10
76537;DHT22;65381;51.254;15.592;2022-11-20T21:31:26;-2.50;76.60
76537;DHT22;65381;51.254;15.592;2022-11-20T21:33:56;-2.60;76.30
76537;DHT22;65381;51.254;15.592;2022-11-20T21:36:28;-2.60;76.30
76537;DHT22;65381;51.254;15.592;2022-11-20T21:38:57;-2.60;76.50
76537;DHT22;65381;51.254;15.592;2022-11-20T21:41:28;-2.60;76.60
76537;DHT22;65381;51.254;15.592;2022-11-20T21:43:58;-2.70;76.40
76537;DHT22;65381;51.254;15.592;2022-11-20T21:46:46;-2.70;76.50
76537;DHT22;65381;51.254;15.592;2022-11-20T21:49:14;-2.70;76.30
76537;DHT22;65381;51.254;15.592;2022-11-20T21:51:43;-2.70;76.40
76537;DHT22;65381;51.254;15.592;2022-11-20T21:54:11;-2.70;76.20
76537;DHT22;65381;51.254;15.592;2022-11-20T21:56:39;-2.80;76.20
76537;DHT22;65381;51.254;15.592;2022-11-20T21:59:11;-2.80;76.10
76537;DHT22;65381;51.254;15.592;2022-11-20T22:01:39;-2.80;76.20
76537;DHT22;65381;51.254;15.592;2022-11-20T22:04:12;-2.70;76.10
76537;DHT22;65381;51.254;15.592;2022-11-20T22:06:40;-2.80;76.20
76537;DHT22;65381;51.254;15.592;2022-11-20T22:09:09;-2.80;75.90
76537;DHT22;65381;51.254;15.592;2022-11-20T22:11:37;-2.80;75.60
76537;DHT22;65381;51.254;15.592;2022-11-20T22:14:04;-2.80;75.60
76537;DHT22;65381;51.254;15.592;2022-11-20T22:16:48;-2.80;75.60
76537;DHT22;65381;51.254;15.592;2022-11-20T22:19:17;-2.80;75.80
76537;DHT22;65381;51.254;15.592;2022-11-20T22:21:46;-2.80;75.50
76537;DHT22;65381;51.254;15.592;2022-11-20T22:24:16;-2.90;75.50
76537;DHT22;65381;51.254;15.592;2022-11-20T22:26:44;-2.90;75.80
76537;DHT22;65381;51.254;15.592;2022-11-20T22:29:17;-2.80;75.60
76537;DHT22;65381;51.254;15.592;2022-11-20T22:31:45;-2.90;75.60
76537;DHT22;65381;51.254;15.592;2022-11-20T22:34:14;-2.80;75.20
76537;DHT22;65381;51.254;15.592;2022-11-20T22:36:42;-2.80;75.30
76537;DHT22;65381;51.254;15.592;2022-11-20T22:39:10;-2.80;75.70
76537;DHT22;65381;51.254;15.592;2022-11-20T22:41:37;-2.70;75.10
76537;DHT22;65381;51.254;15.592;2022-11-20T22:44:06;-2.80;74.70
76537;DHT22;65381;51.254;15.592;2022-11-20T22:46:35;-2.70;75.60
76537;DHT22;65381;51.254;15.592;2022-11-20T22:49:05;-2.70;74.90
76537;DHT22;65381;51.254;15.592;2022-11-20T22:51:37;-2.60;75.20
76537;DHT22;65381;51.254;15.592;2022-11-20T22:54:06;-2.60;74.80
76537;DHT22;65381;51.254;15.592;2022-11-20T22:56:36;-2.60;74.60
76537;DHT22;65381;51.254;15.592;2022-11-20T22:59:04;-2.50;74.30
76537;DHT22;65381;51.254;15.592;2022-11-20T23:01:35;-2.60;74.50
76537;DHT22;65381;51.254;15.592;2022-11-20T23:04:06;-2.60;74.40
76537;DHT22;65381;51.254;15.592;2022-11-20T23:06:34;-2.50;74.30
76537;DHT22;65381;51.254;15.592;2022-11-20T23:09:06;-2.40;74.00
76537;DHT22;65381;51.254;15.592;2022-11-20T23:11:34;-2.40;73.80
76537;DHT22;65381;51.254;15.592;2022-11-20T23:14:06;-2.30;73.60
76537;DHT22;65381;51.254;15.592;2022-11-20T23:16:34;-2.40;73.50
76537;DHT22;65381;51.254;15.592;2022-11-20T23:19:05;-2.50;73.90
76537;DHT22;65381;51.254;15.592;2022-11-20T23:21:35;-2.50;74.10
76537;DHT22;65381;51.254;15.592;2022-11-20T23:24:03;-2.60;74.00
76537;DHT22;65381;51.254;15.592;2022-11-20T23:26:34;-2.60;74.30
76537;DHT22;65381;51.254;15.592;2022-11-20T23:29:03;-2.70;74.50
76537;DHT22;65381;51.254;15.592;2022-11-20T23:31:33;-2.70;74.10
76537;DHT22;65381;51.254;15.592;2022-11-20T23:34:01;-2.80;74.60
76537;DHT22;65381;51.254;15.592;2022-11-20T23:36:29;-2.90;74.50
76537;DHT22;65381;51.254;15.592;2022-11-20T23:38:57;-2.90;74.80
76537;DHT22;65381;51.254;15.592;2022-11-20T23:41:24;-3.00;75.30
76537;DHT22;65381;51.254;15.592;2022-11-20T23:43:52;-3.10;75.40
76537;DHT22;65381;51.254;15.592;2022-11-20T23:46:20;-3.10;75.50
76537;DHT22;65381;51.254;15.592;2022-11-20T23:48:48;-3.20;75.50
76537;DHT22;65381;51.254;15.592;2022-11-20T23:51:15;-3.00;75.20
76537;DHT22;65381;51.254;15.592;2022-11-20T23:53:44;-3.00;75.10
76537;DHT22;65381;51.254;15.592;2022-11-20T23:56:11;-3.00;75.40
76537;DHT22;65381;51.254;15.592;2022-11-20T23:58:42;-2.90;76.00
